Los Angeles, California
Traffic Map
Current Weather Conditions
Los Angeles, California
Clear
Clear
17°
Feels Like: 17°
Wind Chill: 17° Ceiling: Unl
Heat Index: 17° Visibility: 10mi
Dew Point: -1° Wind: 0mph
Humidity: 29% Direction: ° ()
Pressure: 30.15in Gusts: 0mph
Raw Report DataKCQT 070347Z AUTO 00000KT 10SM CLR 17/M01 A3015 RMK AO2 SLP209 T01721011
Traffic Incident Summary
Active as of:
Severity:
Category:
InformationThere was an issue retrieving the traffic information for this location. Please try a different location or try again shortly.
Advertisements
Track Severe Weather on mobile